Latest Weather Observations for Longreach

IDQ60801

Issued at 9:31 pm EST Friday 27 March 2015 (issued every 30 minutes, with the page automatically refreshed every 10 minutes)

About weather observations | Map of weather stations | Latest weather observations for QLD | Other Formats
Station Details ID: 036031 Name: LONGREACH AERO Lat: -23.44 Lon: 144.28 Height: 192.2 m
Data from the previous 72 hours. | See also: Recent months at Longreach
Date/Time
EST
Temp
°C
App
Temp
°C
Dew
Point
Rel
Hum
%
Delta-T
°C
Wind Press
QNH
hPa
Press
MSL
hPa
Rain
since 9 am
mm
Dir
 
Spd
km/h
Gust
km/h
Spd
kts
Gust
kts
27/09:30pm 26.3 29.1 20.4 70 3.9 SSE 6 7 3 4 1017.1 - 1.6
27/09:00pm 26.6 27.9 20.2 68 4.2 E 13 15 7 8 1016.9 1015.7 1.6
27/08:30pm 28.0 27.4 18.4 56 6.2 SE 19 24 10 13 1016.4 - 1.6
27/08:00pm 27.8 27.6 18.5 57 6.0 E 17 22 9 12 1015.9 - 1.6
27/07:30pm 28.2 28.2 19.0 57 6.0 ESE 17 20 9 11 1015.6 - 1.6
27/07:00pm 28.5 27.6 19.1 56 6.1 E 22 30 12 16 1015.1 - 1.6
27/06:30pm 28.8 31.1 19.8 58 5.9 WSW 7 13 4 7 1014.6 - 1.6
27/06:00pm 27.0 28.6 20.8 69 4.1 N 13 19 7 10 1014.3 1013.1 1.6
27/05:30pm 26.2 25.3 19.9 68 4.1 ESE 24 37 13 20 1014.5 - 1.2
27/05:04pm 27.0 24.7 19.3 62 5.0 SSE 30 48 16 26 1014.8 - 0.8
27/05:00pm 28.4 29.9 19.7 59 5.7 W 11 13 6 7 1014.7 - 0.8
27/04:51pm 30.8 31.7 18.3 47 8.1 NW 11 13 6 7 1014.2 - 0.0
27/04:30pm 31.0 28.5 17.2 43 8.8 N 26 33 14 18 1013.8 - 0.0
27/04:00pm 33.4 30.4 14.9 32 11.5 NNE 24 32 13 17 1013.5 - 0.0
27/03:30pm 35.2 33.2 15.4 30 12.5 ENE 20 26 11 14 1013.5 - 0.0
27/03:00pm 35.9 35.5 15.1 29 13.1 SW 11 15 6 8 1013.6 1012.4 0.0
27/02:30pm 34.5 34.0 15.9 33 11.8 ESE 13 20 7 11 1013.9 - 0.0
27/02:00pm 35.5 35.9 16.3 32 12.3 NNE 9 15 5 8 1014.4 - 0.0
27/01:30pm 35.3 35.2 16.0 31 12.3 E 11 15 6 8 1014.8 - 0.0
27/01:00pm 34.1 33.6 15.9 33 11.5 ENE 13 20 7 11 1015.6 - 0.0
27/12:30pm 34.5 33.3 16.1 33 11.7 E 17 26 9 14 1016.2 - 0.0
27/12:00pm 33.6 30.3 12.9 28 12.5 SE 22 37 12 20 1016.9 1015.7 0.0
27/11:30am 32.3 29.3 12.1 29 12.0 SE 19 30 10 16 1017.6 - 0.0
27/11:00am 31.5 27.5 10.6 27 12.1 SE 22 30 12 16 1018.2 - 0.0
27/10:30am 30.3 26.2 8.6 26 12.1 ESE 20 30 11 16 1018.6 - 0.0
27/10:00am 30.2 24.8 8.1 25 12.2 SE 26 35 14 19 1018.8 - 0.0
27/09:30am 29.1 22.7 5.2 22 12.5 SE 28 35 15 19 1018.9 - 0.0
27/09:00am 27.2 19.5 2.4 20 12.2 SE 32 41 17 22 1018.9 1017.7 0.0
27/08:30am 26.9 18.7 0.6 18 12.5 SE 33 44 18 24 1018.9 - 0.0
27/08:00am 25.9 17.7 -0.9 17 12.3 SSE 32 39 17 21 1018.9 - 0.0
27/07:30am 24.7 17.2 -1.1 18 11.7 SSE 28 37 15 20 1018.5 - 0.0
27/07:00am 23.9 17.3 -0.5 20 11.1 SSE 24 30 13 16 1018.3 - 0.0
27/06:30am 23.7 18.1 -0.1 20 10.9 SSE 19 26 10 14 1017.9 - 0.0
27/06:00am 23.5 17.3 -0.1 21 10.8 SSE 22 28 12 15 1017.6 1016.4 0.0
27/05:30am 23.6 17.1 0.1 21 10.8 SSE 24 30 13 16 1017.2 - 0.0
27/05:00am 23.7 17.9 -0.1 20 10.9 S 20 28 11 15 1017.1 - 0.0
27/04:30am 23.9 18.8 0.8 22 10.8 S 17 26 9 14 1017.0 - 0.0
27/04:00am 24.2 18.6 1.0 21 10.9 S 20 26 11 14 1016.8 - 0.0
27/03:30am 24.5 18.9 0.9 21 11.1 S 20 26 11 14 1016.8 - 0.0
27/03:00am 24.9 19.8 0.9 20 11.3 S 17 26 9 14 1017.0 1015.8 0.0
27/02:30am 25.6 20.2 1.3 20 11.6 S 19 26 10 14 1017.2 - 0.0
27/02:00am 25.3 20.7 1.8 21 11.3 S 15 19 8 10 1017.5 - 0.0
27/01:30am 25.2 21.5 2.6 23 11.0 S 11 13 6 7 1017.5 - 0.0
27/01:00am 25.1 21.0 2.4 23 11.0 S 13 15 7 8 1017.6 - 0.0
27/12:30am 25.3 21.6 2.1 22 11.2 S 11 13 6 7 1017.8 - 0.0
27/12:00am 25.7 22.0 2.6 22 11.3 S 11 15 6 8 1017.8 1016.6 0.0
 
Date/Time
EST
Temp
°C
App
Temp
°C
Dew
Point
Rel
Hum
%
Delta-T
°C
Wind Press
QNH
hPa
Press
MSL
hPa
Rain
since 9 am
mm
Dir
 
Spd
km/h
Gust
km/h
Spd
kts
Gust
kts
26/11:30pm 26.5 22.4 2.1 20 11.9 S 13 15 7 8 1017.8 - 0.0
26/11:00pm 27.1 22.9 1.8 19 12.3 S 13 15 7 8 1017.9 - 0.0
26/10:30pm 27.9 23.3 1.3 18 12.9 S 15 19 8 10 1017.9 - 0.0
26/10:00pm 28.4 23.6 0.4 16 13.4 S 15 19 8 10 1017.9 - 0.0
26/09:30pm 29.1 23.9 0.0 15 13.9 S 17 20 9 11 1017.8 - 0.0
26/09:00pm 29.9 24.2 -0.6 14 14.5 S 19 26 10 14 1017.6 1016.4 0.0
26/08:30pm 30.2 23.6 -0.7 13 14.7 S 24 30 13 16 1017.3 - 0.0
26/08:00pm 30.5 23.5 -0.8 13 14.9 S 26 37 14 20 1016.9 - 0.0
26/07:30pm 31.2 23.7 -1.2 12 15.4 S 28 33 15 18 1016.4 - 0.0
26/07:00pm 31.9 24.1 -0.6 12 15.7 S 30 37 16 20 1016.0 - 0.0
26/06:30pm 32.6 25.2 -0.6 12 16.1 SSW 28 37 15 20 1015.6 - 0.0
26/06:00pm 33.9 27.6 1.6 13 16.4 S 24 32 13 17 1015.0 1013.8 0.0
26/05:30pm 34.5 28.3 2.2 13 16.6 S 24 35 13 19 1014.7 - 0.0
26/05:00pm 35.1 28.1 2.1 12 17.0 SSW 28 37 15 20 1014.4 - 0.0
26/04:30pm 35.5 29.6 1.5 12 17.4 SSW 22 30 12 16 1014.3 - 0.0
26/04:00pm 35.0 27.9 1.5 12 17.1 SSW 28 37 15 20 1014.1 - 0.0
26/03:30pm 35.5 30.5 3.5 13 16.9 SW 19 30 10 16 1014.0 - 0.0
26/03:00pm 35.4 30.6 4.4 14 16.6 SSW 19 32 10 17 1014.3 1013.1 0.0
26/02:30pm 34.9 29.0 4.0 14 16.4 SSW 24 39 13 21 1014.5 - 0.0
26/02:00pm 36.0 30.6 4.3 14 17.0 SSW 22 35 12 19 1014.8 - 0.0
26/01:30pm 35.3 29.8 4.1 14 16.6 S 22 30 12 16 1015.2 - 0.0
26/01:00pm 35.3 30.0 4.8 15 16.4 S 22 37 12 20 1015.8 - 0.0
26/12:30pm 34.1 29.1 4.7 16 15.7 S 20 30 11 16 1016.3 - 0.0
26/12:00pm 34.2 29.1 4.2 15 15.9 S 20 33 11 18 1016.8 1015.6 0.0
26/11:30am 33.6 28.0 3.2 14 15.8 S 22 32 12 17 1017.3 - 0.0
26/11:00am 31.9 26.2 3.0 16 14.8 SSE 22 30 12 16 1017.8 - 0.0
26/10:30am 30.9 24.8 2.7 16 14.3 S 24 33 13 18 1018.1 - 0.0
26/10:00am 30.3 24.1 2.1 16 14.1 SSE 24 35 13 19 1018.2 - 0.0
26/09:30am 28.9 21.0 0.8 16 13.6 SSE 32 39 17 21 1018.1 - 0.0
26/09:00am 27.9 20.5 -0.8 15 13.4 SSE 28 37 15 20 1018.2 1017.0 0.0
26/08:30am 26.0 18.5 -1.5 16 12.5 S 28 37 15 20 1018.1 - 0.0
26/08:00am 24.9 18.2 -1.1 18 11.8 S 24 30 13 16 1018.0 - 0.0
26/07:30am 23.4 18.1 -0.3 21 10.8 SSW 17 24 9 13 1017.7 - 0.0
26/07:00am 22.6 17.9 0.7 23 10.1 SSW 15 20 8 11 1017.1 - 0.0
26/06:30am 21.9 16.9 1.2 25 9.6 S 17 20 9 11 1017.0 - 0.0
26/06:00am 21.6 16.7 1.7 27 9.3 SSW 17 19 9 10 1016.8 1015.6 0.0
26/05:30am 22.2 18.0 1.8 26 9.6 SSW 13 15 7 8 1016.3 - 0.0
26/05:00am 22.7 18.1 1.7 25 9.9 SSW 15 19 8 10 1015.8 - 0.0
26/04:30am 23.0 18.1 1.9 25 10.0 SSW 17 22 9 12 1015.5 - 0.0
26/04:00am 23.2 18.3 2.3 25 10.0 SSW 17 19 9 10 1015.5 - 0.0
26/03:30am 24.3 20.3 3.0 25 10.4 SSW 13 17 7 9 1015.4 - 0.0
26/03:00am 24.2 20.2 3.1 25 10.3 S 13 17 7 9 1015.4 1014.1 0.0
26/02:30am 24.8 20.9 3.3 24 10.6 SSW 13 17 7 9 1015.7 - 0.0
26/02:00am 25.4 21.5 3.4 24 10.9 SSW 13 17 7 9 1015.7 - 0.0
26/01:30am 25.6 21.8 3.8 24 10.9 SSW 13 15 7 8 1015.6 - 0.0
26/01:00am 26.2 22.3 3.6 23 11.3 SSW 13 17 7 9 1015.8 - 0.0
26/12:30am 27.5 23.2 3.1 20 12.2 SSW 15 19 8 10 1015.6 - 0.0
26/12:00am 28.5 23.6 2.3 18 13.0 SSW 17 22 9 12 1015.6 1014.3 0.0
 
Date/Time
EST
Temp
°C
App
Temp
°C
Dew
Point
Rel
Hum
%
Delta-T
°C
Wind Press
QNH
hPa
Press
MSL
hPa
Rain
since 9 am
mm
Dir
 
Spd
km/h
Gust
km/h
Spd
kts
Gust
kts
25/11:30pm 29.1 23.9 2.5 18 13.3 SSW 19 30 10 16 1015.4 - 0.0
25/11:00pm 29.6 24.3 1.7 16 13.8 SSW 19 26 10 14 1015.5 - 0.0
25/10:30pm 30.0 24.5 1.8 16 14.0 SSW 20 26 11 14 1015.5 - 0.0
25/10:00pm 30.2 24.7 1.9 16 14.1 SSW 20 30 11 16 1015.5 - 0.0
25/09:30pm 30.7 25.1 1.1 15 14.6 SW 20 28 11 15 1015.2 - 0.0
25/09:00pm 31.4 26.0 1.5 15 14.9 SSW 19 26 10 14 1015.0 1013.8 0.0
25/08:30pm 32.4 27.2 2.7 15 15.2 SW 19 28 10 15 1014.7 - 0.0
25/08:00pm 32.9 27.9 4.6 17 15.0 SW 20 28 11 15 1014.2 - 0.0
25/07:30pm 33.3 29.2 6.4 18 14.7 SW 17 20 9 11 1013.7 - 0.0
25/07:00pm 34.6 30.4 5.8 16 15.7 SW 17 24 9 13 1013.2 - 0.0
25/06:30pm 35.7 30.9 4.7 14 16.7 SW 19 28 10 15 1012.8 - 0.0
25/06:00pm 36.3 31.4 3.9 13 17.3 SW 19 26 10 14 1012.5 1011.3 0.0
25/05:30pm 37.0 31.8 3.3 12 17.9 SSW 20 28 11 15 1012.1 - 0.0
25/05:00pm 37.0 31.7 2.1 11 18.2 SSW 19 26 10 14 1011.9 - 0.0
25/04:30pm 37.5 32.1 1.3 10 18.7 SW 19 28 10 15 1011.7 - 0.0
25/04:00pm 37.1 33.6 3.6 12 17.9 W 11 19 6 10 1011.8 - 0.0
25/03:30pm 38.3 33.0 3.0 11 18.8 SW 20 32 11 17 1011.9 - 0.0
25/03:00pm 38.5 33.3 2.3 10 19.1 SSW 19 26 10 14 1012.0 1010.8 0.0
25/02:30pm 38.6 34.2 2.5 10 19.1 W 15 19 8 10 1012.2 - 0.0
25/02:00pm 38.1 34.3 3.7 12 18.5 SW 13 32 7 17 1012.6 - 0.0
25/01:30pm 37.6 33.1 4.4 13 18.0 WSW 17 32 9 17 1012.8 - 0.0
25/01:00pm 37.0 33.4 5.2 14 17.4 SSW 13 19 7 10 1013.3 - 0.0
25/12:30pm 36.9 32.8 6.0 15 17.1 WSW 17 28 9 15 1013.7 - 0.0
25/12:00pm 36.0 33.0 9.2 19 15.5 SW 15 32 8 17 1014.1 1012.9 0.0
25/11:30am 35.4 32.9 8.3 19 15.4 SW 11 19 6 10 1014.5 - 0.0
25/11:00am 33.5 31.2 8.9 22 14.0 SSW 11 19 6 10 1014.9 - 0.0
25/10:30am 32.3 30.4 10.4 26 12.7 S 11 17 6 9 1015.2 - 0.0
25/10:00am 31.0 27.8 8.4 24 12.6 S 15 24 8 13 1015.2 - 0.0
25/09:30am 30.7 27.1 8.2 24 12.5 SSW 17 26 9 14 1015.1 - 0.0
25/09:00am 28.4 24.1 7.9 27 11.2 S 20 28 11 15 1015.1 1013.9 0.0
25/08:30am 27.4 23.0 7.3 28 10.8 S 20 28 11 15 1015.0 - 0.0
25/08:00am 25.4 22.2 6.8 30 9.8 SW 13 15 7 8 1014.9 - 0.0
25/07:30am 22.8 18.8 4.8 31 9.0 SW 15 22 8 12 1014.4 - 0.0
25/07:00am 21.8 17.4 4.6 32 8.5 SW 17 20 9 11 1014.1 - 0.0
25/06:30am 21.7 18.0 4.2 31 8.6 SSW 13 17 7 9 1013.6 - 0.0
25/06:00am 21.6 17.7 3.4 30 8.8 SW 13 17 7 9 1013.4 1012.2 0.0
25/05:30am 22.0 18.2 3.8 30 8.9 SW 13 15 7 8 1013.2 - 0.0
25/05:00am 22.6 19.3 4.5 30 9.0 SW 11 13 6 7 1012.9 - 0.0
25/04:30am 23.7 20.3 4.2 28 9.7 SSW 11 15 6 8 1012.7 - 0.0
25/04:00am 24.3 20.4 3.4 25 10.3 S 13 15 7 8 1012.5 - 0.0
25/03:30am 24.9 20.5 2.5 23 10.9 S 15 17 8 9 1012.4 - 0.0
25/03:00am 25.4 21.6 1.7 21 11.4 SSW 11 13 6 7 1012.3 1011.1 0.0
25/02:30am 25.6 21.4 1.8 21 11.5 SSW 13 15 7 8 1012.4 - 0.0
25/02:00am 26.0 21.1 2.2 21 11.6 SSW 17 19 9 10 1012.5 - 0.0
25/01:30am 26.7 22.3 2.9 21 11.8 SSW 15 19 8 10 1012.5 - 0.0
25/01:00am 28.0 23.5 2.4 19 12.7 S 15 17 8 9 1012.6 - 0.0
25/12:30am 27.4 23.9 7.3 28 10.8 SSW 15 17 8 9 1012.8 - 0.0
25/12:00am 27.0 25.5 10.4 35 9.4 SSW 9 11 5 6 1013.2 1012.0 0.0
 
Date/Time
EST
Temp
°C
App
Temp
°C
Dew
Point
Rel
Hum
%
Delta-T
°C
Wind Press
QNH
hPa
Press
MSL
hPa
Rain
since 9 am
mm
Dir
 
Spd
km/h
Gust
km/h
Spd
kts
Gust
kts
24/11:30pm 27.2 26.6 13.6 43 8.1 SSW 9 11 5 6 1013.2 - 0.0
24/11:00pm 28.4 27.7 14.4 42 8.5 SSE 11 13 6 7 1013.1 - 0.0
24/10:30pm 30.0 27.7 10.3 29 11.3 SSE 13 19 7 10 1013.0 - 0.0
24/10:00pm 29.5 29.0 15.0 41 8.9 WSW 11 13 6 7 1012.7 - 0.0

Other Formats:

Comma delimited format used in spreadsheet applications
http://www.bom.gov.au/fwo/IDQ60801/IDQ60801.94346.axf

JavaScript Object Notation format (JSON) in row-major order
http://www.bom.gov.au/fwo/IDQ60801/IDQ60801.94346.json